sensor_id;sensor_type;location;lat;lon;timestamp;pressure;altitude;pressure_sealevel;temperature;humidity
14242;BME280;7205;50.864;12.766;2024-01-11T00:00:31;98911.06;;;-6.17;93.21
14242;BME280;7205;50.864;12.766;2024-01-11T00:02:59;98903.38;;;-6.18;93.53
14242;BME280;7205;50.864;12.766;2024-01-11T00:05:26;98902.50;;;-6.17;93.56
14242;BME280;7205;50.864;12.766;2024-01-11T00:07:53;98890.59;;;-6.20;93.79
14242;BME280;7205;50.864;12.766;2024-01-11T00:10:20;98889.72;;;-6.20;93.92
14242;BME280;7205;50.864;12.766;2024-01-11T00:12:47;98908.38;;;-6.14;94.05
14242;BME280;7205;50.864;12.766;2024-01-11T00:15:14;98903.44;;;-6.20;94.27
14242;BME280;7205;50.864;12.766;2024-01-11T00:17:40;98905.06;;;-6.17;94.26
14242;BME280;7205;50.864;12.766;2024-01-11T00:20:10;98904.19;;;-6.16;94.16
14242;BME280;7205;50.864;12.766;2024-01-11T00:22:37;98904.19;;;-6.16;94.16
14242;BME280;7205;50.864;12.766;2024-01-11T00:25:04;98893.06;;;-6.17;94.30
14242;BME280;7205;50.864;12.766;2024-01-11T00:27:31;98892.22;;;-6.17;94.31
14242;BME280;7205;50.864;12.766;2024-01-11T00:29:58;98897.50;;;-6.22;94.36
14242;BME280;7205;50.864;12.766;2024-01-11T00:32:25;98893.25;;;-6.24;94.32
14242;BME280;7205;50.864;12.766;2024-01-11T00:34:52;98889.88;;;-6.25;94.18
14242;BME280;7205;50.864;12.766;2024-01-11T00:37:20;98889.88;;;-6.25;94.18
14242;BME280;7205;50.864;12.766;2024-01-11T00:39:47;98889.81;;;-6.23;94.08
14242;BME280;7205;50.864;12.766;2024-01-11T00:42:14;98889.81;;;-6.23;94.08
14242;BME280;7205;50.864;12.766;2024-01-11T00:44:41;98893.16;;;-6.20;94.14
14242;BME280;7205;50.864;12.766;2024-01-11T00:47:07;98884.09;;;-6.33;93.95
14242;BME280;7205;50.864;12.766;2024-01-11T00:49:36;98902.00;;;2.70;94.00
14242;BME280;7205;50.864;12.766;2024-01-11T00:52:03;98883.28;;;-6.35;94.11
14242;BME280;7205;50.864;12.766;2024-01-11T00:54:31;62976.19;;;-140.29;100.00
14242;BME280;7205;50.864;12.766;2024-01-11T00:56:58;62976.19;;;-140.29;100.00
14242;BME280;7205;50.864;12.766;2024-01-11T00:59:25;62976.19;;;-140.29;100.00
14242;BME280;7205;50.864;12.766;2024-01-11T01:01:52;62976.19;;;-140.29;100.00
14242;BME280;7205;50.864;12.766;2024-01-11T01:04:18;62976.19;;;-140.29;100.00
14242;BME280;7205;50.864;12.766;2024-01-11T01:06:45;62976.19;;;-140.29;100.00
14242;BME280;7205;50.864;12.766;2024-01-11T01:09:12;62976.19;;;-140.29;100.00
14242;BME280;7205;50.864;12.766;2024-01-11T01:11:41;98881.63;;;-6.37;93.87
14242;BME280;7205;50.864;12.766;2024-01-11T01:14:08;98866.13;;;-6.34;91.83
14242;BME280;7205;50.864;12.766;2024-01-11T01:16:35;98872.09;;;-6.12;92.79
14242;BME280;7205;50.864;12.766;2024-01-11T01:19:02;98862.91;;;-6.41;93.30
14242;BME280;7205;50.864;12.766;2024-01-11T01:21:28;98866.28;;;-6.39;93.22
14242;BME280;7205;50.864;12.766;2024-01-11T01:23:55;98859.47;;;-6.40;92.82
14242;BME280;7205;50.864;12.766;2024-01-11T01:26:22;98852.00;;;-6.49;92.97
14242;BME280;7205;50.864;12.766;2024-01-11T01:28:50;98849.50;;;-6.52;92.82
14242;BME280;7205;50.864;12.766;2024-01-11T01:31:17;98851.22;;;-6.53;92.70
14242;BME280;7205;50.864;12.766;2024-01-11T01:33:44;98855.59;;;-6.56;92.43
14242;BME280;7205;50.864;12.766;2024-01-11T01:36:10;98856.53;;;-6.59;92.61
14242;BME280;7205;50.864;12.766;2024-01-11T01:38:37;98845.50;;;-6.62;92.37
14242;BME280;7205;50.864;12.766;2024-01-11T01:41:04;98847.28;;;-6.64;92.19
14242;BME280;7205;50.864;12.766;2024-01-11T01:43:31;98847.28;;;-6.64;92.19
14242;BME280;7205;50.864;12.766;2024-01-11T01:46:00;62976.19;;;-140.29;100.00
14242;BME280;7205;50.864;12.766;2024-01-11T01:48:27;62976.19;;;-140.29;100.00
14242;BME280;7205;50.864;12.766;2024-01-11T01:50:54;62976.19;;;-140.29;100.00
14242;BME280;7205;50.864;12.766;2024-01-11T01:53:22;62976.19;;;-140.29;100.00
14242;BME280;7205;50.864;12.766;2024-01-11T01:55:50;62976.19;;;-140.29;100.00
14242;BME280;7205;50.864;12.766;2024-01-11T01:58:19;62976.19;;;-140.29;100.00
14242;BME280;7205;50.864;12.766;2024-01-11T02:00:47;62976.19;;;-140.29;100.00
14242;BME280;7205;50.864;12.766;2024-01-11T02:03:16;62976.19;;;-140.29;100.00
14242;BME280;7205;50.864;12.766;2024-01-11T02:05:43;62976.19;;;-140.29;100.00
14242;BME280;7205;50.864;12.766;2024-01-11T02:08:15;98847.31;;;-6.66;92.20
14242;BME280;7205;50.864;12.766;2024-01-11T02:10:43;98879.69;;;-6.60;88.13
14242;BME280;7205;50.864;12.766;2024-01-11T02:13:11;98870.81;;;-6.81;88.81
14242;BME280;7205;50.864;12.766;2024-01-11T02:15:38;98881.16;;;-6.84;89.68
14242;BME280;7205;50.864;12.766;2024-01-11T02:18:05;98886.34;;;-6.85;89.87
14242;BME280;7205;50.864;12.766;2024-01-11T02:20:33;98894.00;;;-6.84;90.43
14242;BME280;7205;50.864;12.766;2024-01-11T02:23:05;98893.22;;;-6.87;90.80
14242;BME280;7205;50.864;12.766;2024-01-11T02:25:33;98887.25;;;-6.88;91.49
14242;BME280;7205;50.864;12.766;2024-01-11T02:28:00;98878.69;;;-6.87;91.71
14242;BME280;7205;50.864;12.766;2024-01-11T02:30:27;98876.72;;;-6.85;92.07
14242;BME280;7205;50.864;12.766;2024-01-11T02:32:54;98884.31;;;-6.74;92.50
14242;BME280;7205;50.864;12.766;2024-01-11T02:35:21;98869.97;;;-6.81;92.61
14242;BME280;7205;50.864;12.766;2024-01-11T02:37:48;98879.16;;;-6.73;92.92
14242;BME280;7205;50.864;12.766;2024-01-11T02:40:15;98871.50;;;-6.74;93.59
14242;BME280;7205;50.864;12.766;2024-01-11T02:42:43;98869.88;;;-6.77;93.70
14242;BME280;7205;50.864;12.766;2024-01-11T02:45:11;98871.53;;;-6.76;94.34
14242;BME280;7205;50.864;12.766;2024-01-11T02:47:38;98862.13;;;-6.75;94.25
14242;BME280;7205;50.864;12.766;2024-01-11T02:50:06;98868.06;;;-6.73;94.28
14242;BME280;7205;50.864;12.766;2024-01-11T02:52:33;98873.19;;;-6.73;93.78
14242;BME280;7205;50.864;12.766;2024-01-11T02:55:00;98879.31;;;-6.79;93.17
14242;BME280;7205;50.864;12.766;2024-01-11T02:57:27;98869.09;;;-6.80;93.16
14242;BME280;7205;50.864;12.766;2024-01-11T02:59:55;98873.47;;;-6.84;93.18
14242;BME280;7205;50.864;12.766;2024-01-11T03:02:22;98892.25;;;-6.82;92.87
14242;BME280;7205;50.864;12.766;2024-01-11T03:04:49;98877.00;;;-6.89;92.60
14242;BME280;7205;50.864;12.766;2024-01-11T03:07:15;98877.94;;;-6.92;92.77
14242;BME280;7205;50.864;12.766;2024-01-11T03:09:42;98889.81;;;-6.88;92.90
14242;BME280;7205;50.864;12.766;2024-01-11T03:12:09;98889.81;;;-6.88;92.90
14242;BME280;7205;50.864;12.766;2024-01-11T03:14:36;98894.22;;;-6.93;92.66
14242;BME280;7205;50.864;12.766;2024-01-11T03:17:05;98898.53;;;-6.95;92.48
14242;BME280;7205;50.864;12.766;2024-01-11T03:19:32;98922.34;;;-6.90;92.35
14242;BME280;7205;50.864;12.766;2024-01-11T03:21:58;85153.31;;;-6.90;92.35
14242;BME280;7205;50.864;12.766;2024-01-11T03:24:28;98903.75;;;-6.98;91.90
14242;BME280;7205;50.864;12.766;2024-01-11T03:26:55;98909.69;;;-6.96;91.70
14242;BME280;7205;50.864;12.766;2024-01-11T03:29:22;98908.88;;;-6.98;91.84
14242;BME280;7205;50.864;12.766;2024-01-11T03:31:49;98900.44;;;-7.03;91.90
14242;BME280;7205;50.864;12.766;2024-01-11T03:34:17;98931.03;;;-6.94;92.00
14242;BME280;7205;50.864;12.766;2024-01-11T03:36:44;62976.19;;;-140.29;100.00
14242;BME280;7205;50.864;12.766;2024-01-11T03:39:10;62976.19;;;-140.29;100.00
14242;BME280;7205;50.864;12.766;2024-01-11T03:41:37;62976.19;;;-140.29;100.00
14242;BME280;7205;50.864;12.766;2024-01-11T03:44:05;62976.19;;;-140.29;100.00
14242;BME280;7205;50.864;12.766;2024-01-11T03:46:32;62976.19;;;-140.29;100.00
14242;BME280;7205;50.864;12.766;2024-01-11T03:48:58;62976.19;;;-140.29;100.00
14242;BME280;7205;50.864;12.766;2024-01-11T03:51:27;62976.19;;;-140.29;100.00
14242;BME280;7205;50.864;12.766;2024-01-11T03:53:53;62976.19;;;-140.29;100.00
14242;BME280;7205;50.864;12.766;2024-01-11T03:56:20;62976.19;;;-140.29;100.00
14242;BME280;7205;50.864;12.766;2024-01-11T03:58:47;62976.19;;;-140.29;100.00
14242;BME280;7205;50.864;12.766;2024-01-11T04:01:14;62976.19;;;-140.29;100.00
14242;BME280;7205;50.864;12.766;2024-01-11T04:03:41;62976.19;;;-140.29;100.00
14242;BME280;7205;50.864;12.766;2024-01-11T04:06:08;62976.19;;;-140.29;100.00
14242;BME280;7205;50.864;12.766;2024-01-11T04:08:36;62976.19;;;-140.29;100.00
14242;BME280;7205;50.864;12.766;2024-01-11T04:11:03;62976.19;;;-140.29;100.00
14242;BME280;7205;50.864;12.766;2024-01-11T04:13:30;62976.19;;;-140.29;100.00
14242;BME280;7205;50.864;12.766;2024-01-11T04:15:57;62976.19;;;-140.29;100.00
14242;BME280;7205;50.864;12.766;2024-01-11T04:18:24;62976.19;;;-140.29;100.00
14242;BME280;7205;50.864;12.766;2024-01-11T04:20:50;62976.19;;;-140.29;100.00
14242;BME280;7205;50.864;12.766;2024-01-11T04:23:17;62976.19;;;-140.29;100.00
14242;BME280;7205;50.864;12.766;2024-01-11T04:25:46;98916.72;;;-7.04;91.60
14242;BME280;7205;50.864;12.766;2024-01-11T04:28:12;98852.38;;;-6.96;90.11
14242;BME280;7205;50.864;12.766;2024-01-11T04:30:39;98842.25;;;-7.01;91.10
14242;BME280;7205;50.864;12.766;2024-01-11T04:33:06;98833.75;;;-7.03;91.76
14242;BME280;7205;50.864;12.766;2024-01-11T04:35:33;98820.09;;;-7.03;91.98
14242;BME280;7205;50.864;12.766;2024-01-11T04:38:00;98823.44;;;-7.01;92.43
14242;BME280;7205;50.864;12.766;2024-01-11T04:40:26;98818.34;;;-7.03;92.63
14242;BME280;7205;50.864;12.766;2024-01-11T04:42:54;98824.31;;;-7.02;93.00
14242;BME280;7205;50.864;12.766;2024-01-11T04:45:21;98824.25;;;-6.99;93.58
14242;BME280;7205;50.864;12.766;2024-01-11T04:47:50;98813.06;;;-6.97;93.99
14242;BME280;7205;50.864;12.766;2024-01-11T04:50:16;62976.19;;;-140.29;100.00
14242;BME280;7205;50.864;12.766;2024-01-11T04:52:43;62976.19;;;-140.29;100.00
14242;BME280;7205;50.864;12.766;2024-01-11T04:55:10;62976.19;;;-140.29;100.00
14242;BME280;7205;50.864;12.766;2024-01-11T04:57:37;62976.19;;;-140.29;100.00
14242;BME280;7205;50.864;12.766;2024-01-11T05:00:06;62976.19;;;-140.29;100.00
14242;BME280;7205;50.864;12.766;2024-01-11T05:02:33;62976.19;;;-140.29;100.00
14242;BME280;7205;50.864;12.766;2024-01-11T05:05:00;62976.19;;;-140.29;100.00
14242;BME280;7205;50.864;12.766;2024-01-11T05:07:27;62976.19;;;-140.29;100.00
14242;BME280;7205;50.864;12.766;2024-01-11T05:09:54;98827.53;;;-6.94;94.19
14242;BME280;7205;50.864;12.766;2024-01-11T05:12:21;98928.00;;;-6.76;92.61
14242;BME280;7205;50.864;12.766;2024-01-11T05:14:48;98939.16;;;-6.77;93.84
14242;BME280;7205;50.864;12.766;2024-01-11T05:17:16;98927.44;;;-6.87;94.54
14242;BME280;7205;50.864;12.766;2024-01-11T05:19:43;98928.22;;;-6.85;95.40
14242;BME280;7205;50.864;12.766;2024-01-11T05:22:09;98933.25;;;-6.80;95.98
14242;BME280;7205;50.864;12.766;2024-01-11T05:24:36;98927.34;;;-6.84;96.56
14242;BME280;7205;50.864;12.766;2024-01-11T05:27:03;98933.25;;;-6.80;97.08
14242;BME280;7205;50.864;12.766;2024-01-11T05:29:30;98941.78;;;-6.78;97.04
14242;BME280;7205;50.864;12.766;2024-01-11T05:31:57;98941.56;;;-6.71;97.29
14242;BME280;7205;50.864;12.766;2024-01-11T05:34:25;98932.16;;;-6.70;97.37
14242;BME280;7205;50.864;12.766;2024-01-11T05:36:52;98932.16;;;-6.70;97.37
14242;BME280;7205;50.864;12.766;2024-01-11T05:39:19;98904.88;;;-6.74;97.38
14242;BME280;7205;50.864;12.766;2024-01-11T05:41:46;98906.41;;;-6.67;97.71
14242;BME280;7205;50.864;12.766;2024-01-11T05:44:13;98892.00;;;-6.73;98.03
14242;BME280;7205;50.864;12.766;2024-01-11T05:46:40;98896.19;;;-6.69;98.32
14242;BME280;7205;50.864;12.766;2024-01-11T05:49:07;98903.84;;;-6.67;98.41
14242;BME280;7205;50.864;12.766;2024-01-11T05:51:35;98897.00;;;-6.67;98.42
14242;BME280;7205;50.864;12.766;2024-01-11T05:54:02;98897.00;;;-6.67;98.42
14242;BME280;7205;50.864;12.766;2024-01-11T05:56:29;98903.78;;;-6.66;98.33
14242;BME280;7205;50.864;12.766;2024-01-11T05:58:56;98894.25;;;-6.61;98.28
14242;BME280;7205;50.864;12.766;2024-01-11T06:01:23;98863.59;;;-6.67;98.11
14242;BME280;7205;50.864;12.766;2024-01-11T06:03:49;98867.91;;;-6.67;98.02
14242;BME280;7205;50.864;12.766;2024-01-11T06:06:16;98886.72;;;-6.67;98.18
14242;BME280;7205;50.864;12.766;2024-01-11T06:08:45;98891.63;;;-6.59;98.29
14242;BME280;7205;50.864;12.766;2024-01-11T06:11:14;98873.84;;;-6.65;98.48
14242;BME280;7205;50.864;12.766;2024-01-11T06:13:40;98887.44;;;-6.62;98.21
14242;BME280;7205;50.864;12.766;2024-01-11T06:16:07;98879.78;;;-6.65;98.04
14242;BME280;7205;50.864;12.766;2024-01-11T06:18:35;98921.41;;;-6.52;97.93
14242;BME280;7205;50.864;12.766;2024-01-11T06:21:01;98914.03;;;-6.64;97.68
14242;BME280;7205;50.864;12.766;2024-01-11T06:23:28;62976.19;;;-140.29;100.00
14242;BME280;7205;50.864;12.766;2024-01-11T06:25:56;62976.19;;;-140.29;100.00
14242;BME280;7205;50.864;12.766;2024-01-11T06:28:23;62976.19;;;-140.29;100.00
14242;BME280;7205;50.864;12.766;2024-01-11T06:30:50;62976.19;;;-140.29;100.00
14242;BME280;7205;50.864;12.766;2024-01-11T06:33:17;62976.19;;;-140.29;100.00
14242;BME280;7205;50.864;12.766;2024-01-11T06:35:44;62976.19;;;-140.29;100.00
14242;BME280;7205;50.864;12.766;2024-01-11T06:38:10;62976.19;;;-140.29;100.00
14242;BME280;7205;50.864;12.766;2024-01-11T06:40:37;62976.19;;;-140.29;100.00
14242;BME280;7205;50.864;12.766;2024-01-11T06:43:05;62976.19;;;-140.29;100.00
14242;BME280;7205;50.864;12.766;2024-01-11T06:45:32;62976.19;;;-140.29;100.00
14242;BME280;7205;50.864;12.766;2024-01-11T06:47:59;62976.19;;;-140.29;100.00
14242;BME280;7205;50.864;12.766;2024-01-11T06:50:26;62976.19;;;-140.29;100.00
14242;BME280;7205;50.864;12.766;2024-01-11T06:52:53;62976.19;;;-140.29;100.00
14242;BME280;7205;50.864;12.766;2024-01-11T06:55:20;62976.19;;;-140.29;100.00
14242;BME280;7205;50.864;12.766;2024-01-11T06:57:47;62976.19;;;-140.29;100.00
14242;BME280;7205;50.864;12.766;2024-01-11T07:00:16;62976.19;;;-140.29;100.00
14242;BME280;7205;50.864;12.766;2024-01-11T07:02:43;62976.19;;;-140.29;100.00
14242;BME280;7205;50.864;12.766;2024-01-11T07:05:10;62976.19;;;-140.29;100.00
14242;BME280;7205;50.864;12.766;2024-01-11T07:07:37;98921.81;;;-6.67;97.46
14242;BME280;7205;50.864;12.766;2024-01-11T07:10:13;98949.91;;;-6.29;95.13
14242;BME280;7205;50.864;12.766;2024-01-11T07:12:40;98949.28;;;-6.37;96.52
14242;BME280;7205;50.864;12.766;2024-01-11T07:15:09;98938.09;;;-6.36;96.84
14242;BME280;7205;50.864;12.766;2024-01-11T07:17:37;98919.13;;;-6.30;97.49
14242;BME280;7205;50.864;12.766;2024-01-11T07:20:05;62976.19;;;-140.29;100.00
14242;BME280;7205;50.864;12.766;2024-01-11T07:22:33;62976.19;;;-140.29;100.00
14242;BME280;7205;50.864;12.766;2024-01-11T07:25:00;62976.19;;;-140.29;100.00
14242;BME280;7205;50.864;12.766;2024-01-11T07:27:32;98901.81;;;-6.24;97.92
14242;BME280;7205;50.864;12.766;2024-01-11T07:30:05;98891.34;;;-5.87;97.06
14242;BME280;7205;50.864;12.766;2024-01-11T07:32:38;116732.31;;;-5.88;97.93
14242;BME280;7205;50.864;12.766;2024-01-11T07:35:06;98902.44;;;-5.85;98.32
14242;BME280;7205;50.864;12.766;2024-01-11T07:37:33;98890.25;;;-5.80;98.52
14242;BME280;7205;50.864;12.766;2024-01-11T07:40:00;98884.00;;;-5.72;98.89
14242;BME280;7205;50.864;12.766;2024-01-11T07:42:27;98879.56;;;-5.67;99.41
14242;BME280;7205;50.864;12.766;2024-01-11T07:44:54;98878.47;;;-5.58;99.77
14242;BME280;7205;50.864;12.766;2024-01-11T07:47:21;98910.75;;;-5.48;100.00
14242;BME280;7205;50.864;12.766;2024-01-11T07:49:49;98912.94;;;-5.36;100.00
14242;BME280;7205;50.864;12.766;2024-01-11T07:52:16;98873.41;;;-5.34;100.00
14242;BME280;7205;50.864;12.766;2024-01-11T07:54:43;98873.41;;;-5.34;100.00
14242;BME280;7205;50.864;12.766;2024-01-11T07:57:09;98871.91;;;-5.13;100.00
14242;BME280;7205;50.864;12.766;2024-01-11T07:59:36;98887.69;;;-4.97;100.00
14242;BME280;7205;50.864;12.766;2024-01-11T08:02:03;98875.59;;;-4.95;100.00
14242;BME280;7205;50.864;12.766;2024-01-11T08:04:31;98852.41;;;-4.94;100.00
14242;BME280;7205;50.864;12.766;2024-01-11T08:06:59;98876.78;;;-4.79;100.00
14242;BME280;7205;50.864;12.766;2024-01-11T08:09:27;98866.72;;;-4.87;100.00
14242;BME280;7205;50.864;12.766;2024-01-11T08:11:54;98884.63;;;-4.82;99.90
14242;BME280;7205;50.864;12.766;2024-01-11T08:14:21;98877.66;;;-4.80;99.18
14242;BME280;7205;50.864;12.766;2024-01-11T08:16:48;98867.00;;;-4.94;99.08
14242;BME280;7205;50.864;12.766;2024-01-11T08:19:15;98876.34;;;-4.92;99.01
14242;BME280;7205;50.864;12.766;2024-01-11T08:21:42;98872.25;;;-4.97;99.10
14242;BME280;7205;50.864;12.766;2024-01-11T08:24:10;98869.69;;;-4.97;99.18
14242;BME280;7205;50.864;12.766;2024-01-11T08:26:37;98880.66;;;-4.92;99.34
14242;BME280;7205;50.864;12.766;2024-01-11T08:29:04;98893.50;;;-4.91;99.63
14242;BME280;7205;50.864;12.766;2024-01-11T08:31:31;98894.38;;;-4.92;99.94
14242;BME280;7205;50.864;12.766;2024-01-11T08:33:58;98912.91;;;-4.81;100.00
14242;BME280;7205;50.864;12.766;2024-01-11T08:36:30;98898.44;;;-4.85;100.00
14242;BME280;7205;50.864;12.766;2024-01-11T08:38:58;98898.44;;;-4.85;100.00
14242;BME280;7205;50.864;12.766;2024-01-11T08:41:26;98871.69;;;-4.81;100.00
14242;BME280;7205;50.864;12.766;2024-01-11T08:43:53;98868.97;;;-4.76;100.00
14242;BME280;7205;50.864;12.766;2024-01-11T08:46:23;98878.34;;;-4.74;100.00
14242;BME280;7205;50.864;12.766;2024-01-11T08:48:51;98877.44;;;-4.73;100.00
14242;BME280;7205;50.864;12.766;2024-01-11T08:51:17;98896.09;;;-4.66;100.00
14242;BME280;7205;50.864;12.766;2024-01-11T08:53:44;98894.38;;;-4.66;100.00
14242;BME280;7205;50.864;12.766;2024-01-11T08:56:11;98919.84;;;-4.58;100.00
14242;BME280;7205;50.864;12.766;2024-01-11T08:58:40;98907.94;;;-4.61;100.00
14242;BME280;7205;50.864;12.766;2024-01-11T09:01:07;98913.66;;;-4.53;100.00
14242;BME280;7205;50.864;12.766;2024-01-11T09:03:35;98906.78;;;-4.52;100.00
14242;BME280;7205;50.864;12.766;2024-01-11T09:06:02;102396.72;;;-4.48;100.00
14242;BME280;7205;50.864;12.766;2024-01-11T09:08:30;98935.50;;;-4.38;100.00
14242;BME280;7205;50.864;12.766;2024-01-11T09:10:57;98921.00;;;-4.41;100.00
14242;BME280;7205;50.864;12.766;2024-01-11T09:13:24;98918.31;;;-4.38;100.00
14242;BME280;7205;50.864;12.766;2024-01-11T09:15:54;98907.88;;;-4.35;100.00
14242;BME280;7205;50.864;12.766;2024-01-11T09:18:21;62976.19;;;-140.29;100.00
14242;BME280;7205;50.864;12.766;2024-01-11T09:20:48;62976.19;;;-140.29;100.00
14242;BME280;7205;50.864;12.766;2024-01-11T09:23:21;62976.19;;;-140.29;100.00
14242;BME280;7205;50.864;12.766;2024-01-11T09:25:48;62976.19;;;-140.29;100.00
14242;BME280;7205;50.864;12.766;2024-01-11T09:28:15;62976.19;;;-140.29;100.00
14242;BME280;7205;50.864;12.766;2024-01-11T09:30:42;62976.19;;;-140.29;100.00
14242;BME280;7205;50.864;12.766;2024-01-11T09:33:10;62976.19;;;-140.29;100.00
14242;BME280;7205;50.864;12.766;2024-01-11T09:35:37;62976.19;;;-140.29;100.00
14242;BME280;7205;50.864;12.766;2024-01-11T09:38:05;62976.19;;;-140.29;100.00
14242;BME280;7205;50.864;12.766;2024-01-11T09:40:32;62976.19;;;-140.29;100.00
14242;BME280;7205;50.864;12.766;2024-01-11T09:43:00;62976.19;;;-140.29;100.00
14242;BME280;7205;50.864;12.766;2024-01-11T09:45:29;62976.19;;;-140.29;100.00
14242;BME280;7205;50.864;12.766;2024-01-11T09:47:56;62976.19;;;-140.29;100.00
14242;BME280;7205;50.864;12.766;2024-01-11T09:50:25;62976.19;;;-140.29;100.00
14242;BME280;7205;50.864;12.766;2024-01-11T09:52:52;62976.19;;;-140.29;100.00
14242;BME280;7205;50.864;12.766;2024-01-11T09:55:19;62976.19;;;-140.29;100.00
14242;BME280;7205;50.864;12.766;2024-01-11T09:57:47;62976.19;;;-140.29;100.00
14242;BME280;7205;50.864;12.766;2024-01-11T10:00:18;62976.19;;;-140.29;100.00
14242;BME280;7205;50.864;12.766;2024-01-11T10:02:47;62976.19;;;-140.29;100.00
14242;BME280;7205;50.864;12.766;2024-01-11T10:05:16;62976.19;;;-140.29;100.00
14242;BME280;7205;50.864;12.766;2024-01-11T10:07:45;62976.19;;;-140.29;100.00
14242;BME280;7205;50.864;12.766;2024-01-11T10:10:15;62976.19;;;-140.29;100.00
14242;BME280;7205;50.864;12.766;2024-01-11T10:12:42;62976.19;;;-140.29;100.00
14242;BME280;7205;50.864;12.766;2024-01-11T10:15:11;62976.19;;;-140.29;100.00
14242;BME280;7205;50.864;12.766;2024-01-11T10:17:41;62976.19;;;-140.29;100.00
14242;BME280;7205;50.864;12.766;2024-01-11T10:20:10;62976.19;;;-140.29;100.00
14242;BME280;7205;50.864;12.766;2024-01-11T10:22:39;62976.19;;;-140.29;100.00
14242;BME280;7205;50.864;12.766;2024-01-11T10:25:12;62976.19;;;-140.29;100.00
14242;BME280;7205;50.864;12.766;2024-01-11T10:27:42;62976.19;;;-140.29;100.00
14242;BME280;7205;50.864;12.766;2024-01-11T10:30:13;62976.19;;;-140.29;100.00
14242;BME280;7205;50.864;12.766;2024-01-11T10:32:41;62976.19;;;-140.29;100.00
14242;BME280;7205;50.864;12.766;2024-01-11T10:35:09;62976.19;;;-140.29;100.00
14242;BME280;7205;50.864;12.766;2024-01-11T10:37:40;62976.19;;;-140.29;100.00
14242;BME280;7205;50.864;12.766;2024-01-11T10:40:08;62976.19;;;-140.29;100.00
14242;BME280;7205;50.864;12.766;2024-01-11T10:42:41;62976.19;;;-140.29;100.00
14242;BME280;7205;50.864;12.766;2024-01-11T10:45:15;62976.19;;;-140.29;100.00
14242;BME280;7205;50.864;12.766;2024-01-11T10:47:51;62976.19;;;-140.29;100.00
14242;BME280;7205;50.864;12.766;2024-01-11T10:50:19;62976.19;;;-140.29;100.00
14242;BME280;7205;50.864;12.766;2024-01-11T10:53:03;62976.19;;;-140.29;100.00
14242;BME280;7205;50.864;12.766;2024-01-11T10:55:31;62976.19;;;-140.29;100.00
14242;BME280;7205;50.864;12.766;2024-01-11T10:58:00;62976.19;;;-140.29;100.00
14242;BME280;7205;50.864;12.766;2024-01-11T11:00:27;62976.19;;;-140.29;100.00
14242;BME280;7205;50.864;12.766;2024-01-11T11:02:55;62976.19;;;-140.29;100.00
14242;BME280;7205;50.864;12.766;2024-01-11T11:05:22;62976.19;;;-140.29;100.00
14242;BME280;7205;50.864;12.766;2024-01-11T11:07:50;62976.19;;;-140.29;100.00
14242;BME280;7205;50.864;12.766;2024-01-11T11:10:19;62976.19;;;-140.29;100.00
14242;BME280;7205;50.864;12.766;2024-01-11T11:12:48;62976.19;;;-140.29;100.00
14242;BME280;7205;50.864;12.766;2024-01-11T11:15:16;62976.19;;;-140.29;100.00
14242;BME280;7205;50.864;12.766;2024-01-11T11:17:43;62976.19;;;-140.29;100.00
14242;BME280;7205;50.864;12.766;2024-01-11T11:20:11;62976.19;;;-140.29;100.00
14242;BME280;7205;50.864;12.766;2024-01-11T11:22:40;62976.19;;;-140.29;100.00
14242;BME280;7205;50.864;12.766;2024-01-11T11:25:08;62976.19;;;-140.29;100.00
14242;BME280;7205;50.864;12.766;2024-01-11T11:27:35;62976.19;;;-140.29;100.00
14242;BME280;7205;50.864;12.766;2024-01-11T11:30:03;62976.19;;;-140.29;100.00
14242;BME280;7205;50.864;12.766;2024-01-11T11:32:43;62976.19;;;-140.29;100.00
14242;BME280;7205;50.864;12.766;2024-01-11T11:35:09;62976.19;;;-140.29;100.00
14242;BME280;7205;50.864;12.766;2024-01-11T11:37:37;62976.19;;;-140.29;100.00
14242;BME280;7205;50.864;12.766;2024-01-11T11:40:05;62976.19;;;-140.29;100.00
14242;BME280;7205;50.864;12.766;2024-01-11T11:42:34;62976.19;;;-140.29;100.00
14242;BME280;7205;50.864;12.766;2024-01-11T11:45:01;62976.19;;;-140.29;100.00
14242;BME280;7205;50.864;12.766;2024-01-11T11:47:33;62976.19;;;-140.29;100.00
14242;BME280;7205;50.864;12.766;2024-01-11T11:50:07;62976.19;;;-140.29;100.00
14242;BME280;7205;50.864;12.766;2024-01-11T11:52:37;62976.19;;;-140.29;100.00
14242;BME280;7205;50.864;12.766;2024-01-11T11:55:06;62976.19;;;-140.29;100.00
14242;BME280;7205;50.864;12.766;2024-01-11T11:57:34;62976.19;;;-140.29;100.00
14242;BME280;7205;50.864;12.766;2024-01-11T12:00:02;62976.19;;;-140.29;100.00
14242;BME280;7205;50.864;12.766;2024-01-11T12:02:36;62976.19;;;-140.29;100.00
14242;BME280;7205;50.864;12.766;2024-01-11T12:05:04;62976.19;;;-140.29;100.00
14242;BME280;7205;50.864;12.766;2024-01-11T12:07:32;62976.19;;;-140.29;100.00
14242;BME280;7205;50.864;12.766;2024-01-11T12:09:59;62976.19;;;-140.29;100.00
14242;BME280;7205;50.864;12.766;2024-01-11T12:12:26;62976.19;;;-140.29;100.00
14242;BME280;7205;50.864;12.766;2024-01-11T12:14:54;62976.19;;;-140.29;100.00
14242;BME280;7205;50.864;12.766;2024-01-11T12:17:21;62976.19;;;-140.29;100.00
14242;BME280;7205;50.864;12.766;2024-01-11T12:19:47;62976.19;;;-140.29;100.00
14242;BME280;7205;50.864;12.766;2024-01-11T12:22:15;62976.19;;;-140.29;100.00
14242;BME280;7205;50.864;12.766;2024-01-11T12:24:43;62976.19;;;-140.29;100.00
14242;BME280;7205;50.864;12.766;2024-01-11T12:27:10;62976.19;;;-140.29;100.00
14242;BME280;7205;50.864;12.766;2024-01-11T12:29:38;62976.19;;;-140.29;100.00
14242;BME280;7205;50.864;12.766;2024-01-11T12:32:05;62976.19;;;-140.29;100.00
14242;BME280;7205;50.864;12.766;2024-01-11T12:34:33;62976.19;;;-140.29;100.00
14242;BME280;7205;50.864;12.766;2024-01-11T12:37:00;62976.19;;;-140.29;100.00
14242;BME280;7205;50.864;12.766;2024-01-11T12:39:31;62976.19;;;-140.29;100.00
14242;BME280;7205;50.864;12.766;2024-01-11T12:41:59;62976.19;;;-140.29;100.00
14242;BME280;7205;50.864;12.766;2024-01-11T12:44:26;62976.19;;;-140.29;100.00
14242;BME280;7205;50.864;12.766;2024-01-11T12:46:53;62976.19;;;-140.29;100.00